createdAt,value
2024-03-05T00:00:39.460Z,14.50
2024-03-05T00:03:06.485Z,11.80
2024-03-05T00:05:33.528Z,12.70
2024-03-05T00:08:00.696Z,11.00
2024-03-05T00:10:28.109Z,14.20
2024-03-05T00:12:55.460Z,18.70
2024-03-05T00:15:23.005Z,14.00
2024-03-05T00:17:50.021Z,14.50
2024-03-05T00:20:20.398Z,11.70
2024-03-05T00:22:48.519Z,14.50
2024-03-05T00:25:15.882Z,14.00
2024-03-05T00:27:43.063Z,12.90
2024-03-05T00:30:11.034Z,13.00
2024-03-05T00:32:41.209Z,12.20
2024-03-05T00:35:08.727Z,12.60
2024-03-05T00:37:37.118Z,13.90
2024-03-05T00:40:08.069Z,14.20
2024-03-05T00:42:39.097Z,11.40
2024-03-05T00:45:10.013Z,12.00
2024-03-05T00:47:37.964Z,14.30
2024-03-05T00:50:06.031Z,12.80
2024-03-05T00:52:34.467Z,13.80
2024-03-05T00:55:01.967Z,11.70
2024-03-05T00:57:30.290Z,11.60
2024-03-05T00:59:57.766Z,12.10
2024-03-05T01:02:24.928Z,14.00
2024-03-05T01:04:54.498Z,12.20
2024-03-05T01:07:21.982Z,13.40
2024-03-05T01:09:49.396Z,11.20
2024-03-05T01:12:17.163Z,13.50
2024-03-05T01:14:45.388Z,13.20
2024-03-05T01:17:13.989Z,13.30
2024-03-05T01:19:41.164Z,13.30
2024-03-05T01:22:08.344Z,17.60
2024-03-05T01:24:35.432Z,14.40
2024-03-05T01:27:02.478Z,12.20
2024-03-05T01:29:31.813Z,17.10
2024-03-05T01:32:01.404Z,13.80
2024-03-05T01:34:34.222Z,13.10
2024-03-05T01:37:01.400Z,16.60
2024-03-05T01:39:29.837Z,11.80
2024-03-05T01:41:57.343Z,11.70
2024-03-05T01:44:24.929Z,11.60
2024-03-05T01:46:53.078Z,13.10
2024-03-05T01:49:20.629Z,12.40
2024-03-05T01:51:47.631Z,13.80
2024-03-05T01:54:15.570Z,27.50
2024-03-05T01:56:43.945Z,12.20
2024-03-05T01:59:11.371Z,11.40
2024-03-05T02:01:38.679Z,14.10
2024-03-05T02:04:05.730Z,12.80
2024-03-05T02:06:32.986Z,12.70
2024-03-05T02:09:01.034Z,13.80
2024-03-05T02:11:28.230Z,14.00
2024-03-05T02:13:55.344Z,14.00
2024-03-05T02:16:22.393Z,14.80
2024-03-05T02:18:49.599Z,12.80
2024-03-05T02:21:22.023Z,17.00
2024-03-05T02:23:49.561Z,12.60
2024-03-05T02:26:18.886Z,14.90
2024-03-05T02:28:47.818Z,14.10
2024-03-05T02:31:14.880Z,14.00
2024-03-05T02:33:43.442Z,15.60
2024-03-05T02:36:10.556Z,13.10
2024-03-05T02:38:39.432Z,17.60
2024-03-05T02:41:06.906Z,15.60
2024-03-05T02:43:34.933Z,14.30
2024-03-05T02:46:02.072Z,16.10
2024-03-05T02:48:29.116Z,15.50
2024-03-05T02:50:56.582Z,14.80
2024-03-05T02:53:25.472Z,14.60
2024-03-05T02:55:52.439Z,15.70
2024-03-05T02:58:19.561Z,18.80
2024-03-05T03:00:48.294Z,14.30
2024-03-05T03:03:15.995Z,12.60
2024-03-05T03:05:42.997Z,14.30
2024-03-05T03:08:10.066Z,15.50
2024-03-05T03:10:37.183Z,16.30
2024-03-05T03:13:04.357Z,16.10
2024-03-05T03:15:31.759Z,14.30
2024-03-05T03:17:59.208Z,17.10
2024-03-05T03:20:26.297Z,14.70
2024-03-05T03:22:53.636Z,14.70
2024-03-05T03:25:20.837Z,14.00
2024-03-05T03:27:47.922Z,17.90
2024-03-05T03:30:19.499Z,16.20
2024-03-05T03:32:51.573Z,14.50
2024-03-05T03:35:19.270Z,16.30
2024-03-05T03:37:46.193Z,13.80
2024-03-05T03:40:22.291Z,16.40
2024-03-05T03:42:50.911Z,17.00
2024-03-05T03:45:18.523Z,15.20
2024-03-05T03:47:47.450Z,16.10
2024-03-05T03:50:14.745Z,18.50
2024-03-05T03:52:42.545Z,16.10
2024-03-05T03:55:10.337Z,14.70
2024-03-05T03:57:37.541Z,18.20
2024-03-05T04:00:09.306Z,15.10
2024-03-05T04:02:37.857Z,16.70
2024-03-05T04:05:06.240Z,14.70
2024-03-05T04:07:33.770Z,13.90
2024-03-05T04:10:03.824Z,15.10
2024-03-05T04:12:31.268Z,16.60
2024-03-05T04:14:58.220Z,16.40
2024-03-05T04:17:25.519Z,16.00
2024-03-05T04:19:52.777Z,18.20
2024-03-05T04:22:19.851Z,16.20
2024-03-05T04:24:58.354Z,16.00
2024-03-05T04:27:28.336Z,18.20
2024-03-05T04:29:58.255Z,16.50
2024-03-05T04:32:28.278Z,16.70
2024-03-05T04:35:07.984Z,18.00
2024-03-05T04:37:34.997Z,18.00
2024-03-05T04:40:01.951Z,17.20
2024-03-05T04:42:29.624Z,18.50
2024-03-05T04:44:56.666Z,15.70
2024-03-05T04:47:26.236Z,15.60
2024-03-05T04:49:53.453Z,18.40
2024-03-05T04:52:20.653Z,17.80
2024-03-05T04:54:47.673Z,14.20
2024-03-05T04:57:14.745Z,15.20
2024-03-05T04:59:42.493Z,17.90
2024-03-05T05:02:10.334Z,18.60
2024-03-05T05:04:39.463Z,15.20
2024-03-05T05:07:09.612Z,15.00
2024-03-05T05:09:41.127Z,18.40
2024-03-05T05:12:08.295Z,15.60
2024-03-05T05:14:38.632Z,17.40
2024-03-05T05:17:06.260Z,18.00
2024-03-05T05:19:33.404Z,17.10
2024-03-05T05:22:00.443Z,15.00
2024-03-05T05:24:27.444Z,18.00
2024-03-05T05:26:54.524Z,16.00
2024-03-05T05:29:31.429Z,16.50
2024-03-05T05:32:08.960Z,17.50
2024-03-05T05:34:36.806Z,18.50
2024-03-05T05:37:03.867Z,17.40
2024-03-05T05:39:30.896Z,16.30
2024-03-05T05:41:57.827Z,18.30
2024-03-05T05:44:24.968Z,16.00
2024-03-05T05:46:52.606Z,16.30
2024-03-05T05:49:22.602Z,19.10
2024-03-05T05:51:52.661Z,15.90
2024-03-05T05:54:22.632Z,16.00
2024-03-05T05:56:50.337Z,16.10
2024-03-05T05:59:18.926Z,17.90
2024-03-05T06:01:46.662Z,17.40
2024-03-05T06:04:15.761Z,20.30
2024-03-05T06:06:42.916Z,18.10
2024-03-05T06:09:10.311Z,16.90
2024-03-05T06:11:38.053Z,16.50
2024-03-05T06:14:05.490Z,15.40
2024-03-05T06:16:32.676Z,14.80
2024-03-05T06:19:00.020Z,15.40
2024-03-05T06:21:27.215Z,15.10
2024-03-05T06:23:54.199Z,16.60
2024-03-05T06:26:21.248Z,17.10
2024-03-05T06:28:48.331Z,17.60
2024-03-05T06:31:16.098Z,15.00
2024-03-05T06:33:43.183Z,15.70
2024-03-05T06:36:13.732Z,14.90
2024-03-05T06:38:41.148Z,16.60
2024-03-05T06:41:09.717Z,15.60
2024-03-05T06:43:39.809Z,16.50
2024-03-05T06:46:11.164Z,16.30
2024-03-05T06:48:39.481Z,15.80
2024-03-05T06:51:17.704Z,13.70
2024-03-05T06:54:03.395Z,17.80
2024-03-05T06:56:42.633Z,14.40
2024-03-05T06:59:11.817Z,17.80
2024-03-05T07:01:39.088Z,14.10
2024-03-05T07:04:08.191Z,14.90
2024-03-05T07:06:36.851Z,11.60
2024-03-05T07:09:03.998Z,14.30
2024-03-05T07:11:31.613Z,14.20
2024-03-05T07:13:59.509Z,14.90
2024-03-05T07:16:26.841Z,17.10
2024-03-05T07:18:56.855Z,15.10
2024-03-05T07:21:24.940Z,12.00
2024-03-05T07:23:54.674Z,14.00
2024-03-05T07:26:22.987Z,13.20
2024-03-05T07:28:50.393Z,14.40
2024-03-05T07:31:18.700Z,16.00
2024-03-05T07:33:49.279Z,14.80
2024-03-05T07:38:47.069Z,15.30
2024-03-05T07:41:22.780Z,11.90
2024-03-05T07:43:57.244Z,13.50
2024-03-05T07:46:24.463Z,14.90
2024-03-05T07:48:51.403Z,14.60
2024-03-05T07:51:24.396Z,15.50
2024-03-05T07:53:55.249Z,13.60
2024-03-05T07:56:22.560Z,11.70
2024-03-05T07:58:49.748Z,13.90
2024-03-05T08:01:17.017Z,14.00
2024-03-05T08:03:44.407Z,15.30
2024-03-05T08:06:11.367Z,14.00
2024-03-05T08:08:38.506Z,12.00
2024-03-05T08:11:06.356Z,11.70
2024-03-05T08:13:36.904Z,12.40
2024-03-05T08:16:06.684Z,16.00
2024-03-05T08:18:33.926Z,12.10
2024-03-05T08:21:03.606Z,12.10
2024-03-05T08:23:30.797Z,14.30
2024-03-05T08:25:57.955Z,11.70
2024-03-05T08:28:25.782Z,13.70
2024-03-05T08:30:55.263Z,16.50
2024-03-05T08:33:25.236Z,14.90
2024-03-05T08:35:52.401Z,14.00
2024-03-05T08:38:19.394Z,11.80
2024-03-05T08:40:47.578Z,13.70
2024-03-05T08:43:15.675Z,11.90
2024-03-05T08:45:42.763Z,12.00
2024-03-05T08:48:09.916Z,10.90
2024-03-05T08:50:36.993Z,11.70
2024-03-05T08:53:06.336Z,10.50
2024-03-05T08:55:33.693Z,12.60
2024-03-05T08:58:01.786Z,14.30
2024-03-05T09:00:40.949Z,11.60
2024-03-05T09:04:11.651Z,13.80
2024-03-05T09:11:07.142Z,11.90
2024-03-05T09:13:34.554Z,10.70
2024-03-05T09:16:34.562Z,12.20
2024-03-05T09:19:02.040Z,10.80
2024-03-05T09:21:30.018Z,9.00
2024-03-05T09:23:58.398Z,10.20
2024-03-05T09:26:27.313Z,10.10
2024-03-05T09:28:55.234Z,10.90
2024-03-05T09:31:22.710Z,11.40
2024-03-05T09:33:50.166Z,10.90
2024-03-05T10:29:17.329Z,9.70
2024-03-05T10:31:45.485Z,10.20
2024-03-05T10:34:12.425Z,7.40
2024-03-05T10:36:40.924Z,9.10
2024-03-05T10:39:08.906Z,11.50
2024-03-05T10:41:47.205Z,9.10
2024-03-05T10:44:18.442Z,7.40
2024-03-05T10:46:46.789Z,8.70
2024-03-05T10:49:14.189Z,8.50
2024-03-05T10:51:41.774Z,9.40
2024-03-05T10:54:08.813Z,8.30
2024-03-05T11:01:01.440Z,6.60
2024-03-05T11:03:40.998Z,5.70
2024-03-05T11:06:08.774Z,6.50
2024-03-05T11:08:36.773Z,6.80
2024-03-05T11:11:06.620Z,6.20
2024-03-05T11:13:34.163Z,6.20
2024-03-05T11:16:03.398Z,8.50
2024-03-05T11:18:35.123Z,6.60
2024-03-05T11:21:09.326Z,6.90
2024-03-05T11:30:31.057Z,6.20
2024-03-05T11:33:10.716Z,7.00
2024-03-05T11:35:43.002Z,8.10
2024-03-05T11:38:15.485Z,5.40
2024-03-05T11:40:44.756Z,5.90
2024-03-05T11:50:54.714Z,6.60
2024-03-05T11:53:21.356Z,7.40
2024-03-05T11:55:51.957Z,6.60
2024-03-05T11:58:25.525Z,6.20
2024-03-05T12:01:01.627Z,6.10
2024-03-05T12:03:28.465Z,9.10
2024-03-05T12:05:55.381Z,8.70
2024-03-05T12:08:25.975Z,7.10
2024-03-05T12:11:01.118Z,7.80
2024-03-05T12:13:27.937Z,7.70
2024-03-05T12:15:54.525Z,7.30
2024-03-05T12:18:21.067Z,7.50
2024-03-05T12:20:48.131Z,10.70
2024-03-05T12:23:15.124Z,7.60
2024-03-05T12:26:03.057Z,7.40
2024-03-05T12:28:33.589Z,6.80
2024-03-05T12:31:00.680Z,7.30
2024-03-05T12:33:27.737Z,7.90
2024-03-05T12:35:54.980Z,9.50
2024-03-05T12:38:23.599Z,7.00
2024-03-05T12:41:00.575Z,10.70
2024-03-05T12:43:29.850Z,7.30
2024-03-05T12:46:02.955Z,6.60
2024-03-05T12:48:32.531Z,6.20
2024-03-05T12:51:03.890Z,8.20
2024-03-05T12:53:31.827Z,7.40
2024-03-05T12:56:02.378Z,5.80
2024-03-05T12:58:43.504Z,7.10
2024-03-05T13:01:15.437Z,11.20
2024-03-05T13:03:45.686Z,7.40
2024-03-05T13:08:42.309Z,7.80
2024-03-05T13:11:09.122Z,13.80
2024-03-05T13:13:35.839Z,11.60
2024-03-05T13:16:02.522Z,12.90
2024-03-05T13:18:29.575Z,9.80
2024-03-05T13:20:57.419Z,12.20
2024-03-05T13:23:24.350Z,8.20
2024-03-05T13:25:51.040Z,9.90
2024-03-05T13:28:17.660Z,11.30
2024-03-05T13:30:44.715Z,10.00
2024-03-05T13:33:12.702Z,11.00
2024-03-05T13:35:41.266Z,7.70
2024-03-05T13:38:10.848Z,7.60
2024-03-05T13:40:37.898Z,7.30
2024-03-05T13:43:04.864Z,6.80
2024-03-05T13:45:31.602Z,10.10
2024-03-05T13:47:58.552Z,10.30
2024-03-05T13:50:25.298Z,9.20
2024-03-05T13:52:52.271Z,9.90
2024-03-05T13:55:24.921Z,10.70
2024-03-05T13:57:52.515Z,8.50
2024-03-05T14:00:20.164Z,10.00
2024-03-05T14:02:46.880Z,9.60
2024-03-05T14:05:14.050Z,10.00
2024-03-05T14:07:40.650Z,12.30
2024-03-05T14:10:11.246Z,10.50
2024-03-05T14:12:42.366Z,10.40
2024-03-05T14:15:20.192Z,9.50
2024-03-05T14:17:46.737Z,11.30
2024-03-05T14:20:14.003Z,11.70
2024-03-05T14:22:43.891Z,12.10
2024-03-05T14:25:12.301Z,10.00
2024-03-05T14:27:42.315Z,8.40
2024-03-05T14:30:14.265Z,9.70
2024-03-05T14:32:43.830Z,9.90
2024-03-05T14:35:11.207Z,10.60
2024-03-05T14:37:37.821Z,12.20
2024-03-05T14:40:05.570Z,9.30
2024-03-05T14:42:34.421Z,10.90
2024-03-05T14:45:01.672Z,10.80
2024-03-05T14:47:28.198Z,10.10
2024-03-05T14:49:55.354Z,10.60
2024-03-05T14:52:22.979Z,10.30
2024-03-05T14:54:49.683Z,9.50
2024-03-05T14:57:16.213Z,12.30
2024-03-05T14:59:42.801Z,13.70
2024-03-05T15:02:10.414Z,9.40
2024-03-05T15:04:37.107Z,11.20
2024-03-05T15:07:04.269Z,11.20
2024-03-05T15:09:33.577Z,12.20
2024-03-05T15:18:36.798Z,13.00
2024-03-05T15:21:10.095Z,8.90
2024-03-05T15:23:38.717Z,15.50
2024-03-05T15:26:07.108Z,13.50
2024-03-05T15:28:38.173Z,10.40
2024-03-05T15:31:10.318Z,8.80
2024-03-05T15:36:09.809Z,14.30
2024-03-05T15:38:36.983Z,10.70
2024-03-05T15:47:40.775Z,14.70
2024-03-05T15:50:10.400Z,13.20
2024-03-05T15:52:37.953Z,13.20
2024-03-05T15:55:06.174Z,13.20
2024-03-05T15:57:53.554Z,13.20
2024-03-05T16:00:30.640Z,12.10
2024-03-05T16:03:10.969Z,12.50
2024-03-05T16:05:51.796Z,11.90
2024-03-05T16:08:27.484Z,11.40
2024-03-05T16:10:55.756Z,11.50
2024-03-05T16:13:23.675Z,12.10
2024-03-05T16:15:51.604Z,14.00
2024-03-05T16:18:19.100Z,12.40
2024-03-05T16:20:47.601Z,13.60
2024-03-05T16:23:15.308Z,14.70
2024-03-05T16:25:43.115Z,12.50
2024-03-05T16:28:10.921Z,13.60
2024-03-05T16:30:39.459Z,14.90
2024-03-05T16:33:07.899Z,14.30
2024-03-05T16:35:37.221Z,9.50
2024-03-05T16:38:06.188Z,11.60
2024-03-05T16:40:38.349Z,12.20
2024-03-05T16:43:07.660Z,14.30
2024-03-05T16:45:36.579Z,11.00
2024-03-05T16:48:10.902Z,12.90
2024-03-05T16:50:44.201Z,15.20
2024-03-05T16:53:12.746Z,12.50
2024-03-05T16:55:40.939Z,12.50
2024-03-05T16:58:13.508Z,16.10
2024-03-05T17:00:49.066Z,13.10
2024-03-05T17:03:16.470Z,14.30
2024-03-05T17:05:47.773Z,13.40
2024-03-05T17:08:16.192Z,12.80
2024-03-05T17:10:45.732Z,15.50
2024-03-05T17:13:20.395Z,15.30
2024-03-05T17:15:56.610Z,12.30
2024-03-05T17:18:25.528Z,14.10
2024-03-05T17:20:54.960Z,13.30
2024-03-05T17:23:26.225Z,14.70
2024-03-05T17:28:28.236Z,16.90
2024-03-05T17:30:57.558Z,10.30
2024-03-05T17:33:25.544Z,12.10
2024-03-05T17:35:56.567Z,14.10
2024-03-05T17:38:26.272Z,12.30
2024-03-05T17:40:54.654Z,15.60
2024-03-05T17:43:21.871Z,11.10
2024-03-05T17:45:49.730Z,13.50
2024-03-05T17:48:17.315Z,12.30
2024-03-05T17:50:46.360Z,11.50
2024-03-05T17:53:14.571Z,11.20
2024-03-05T17:55:41.832Z,13.10
2024-03-05T17:58:10.013Z,11.10
2024-03-05T18:00:46.723Z,13.00
2024-03-05T18:03:19.007Z,13.20
2024-03-05T18:05:47.257Z,12.60
2024-03-05T18:08:15.067Z,12.90
2024-03-05T18:10:43.483Z,14.90
2024-03-05T18:13:11.926Z,12.20
2024-03-05T18:15:40.100Z,12.50
2024-03-05T18:18:08.168Z,12.90
2024-03-05T18:20:36.841Z,11.60
2024-03-05T18:23:06.711Z,9.80
2024-03-05T18:32:16.904Z,11.40
2024-03-05T18:34:44.390Z,11.50
2024-03-05T18:37:13.190Z,9.30
2024-03-05T18:39:40.352Z,11.30
2024-03-05T18:42:10.544Z,13.50
2024-03-05T18:44:39.426Z,13.60
2024-03-05T18:47:08.278Z,13.10
2024-03-05T18:49:35.864Z,15.70
2024-03-05T18:52:05.059Z,12.00
2024-03-05T18:54:32.548Z,11.70
2024-03-05T18:57:01.333Z,14.90
2024-03-05T18:59:30.489Z,14.40
2024-03-05T19:01:57.928Z,13.90
2024-03-05T19:04:27.804Z,11.60
2024-03-05T19:06:55.088Z,12.90
2024-03-05T19:09:22.301Z,15.70
2024-03-05T19:11:49.745Z,11.50
2024-03-05T19:14:19.020Z,11.40
2024-03-05T19:16:48.590Z,12.50
2024-03-05T19:19:16.982Z,12.60
2024-03-05T19:21:45.546Z,10.60
2024-03-05T19:24:13.298Z,13.10
2024-03-05T19:26:40.725Z,12.00
2024-03-05T19:29:08.369Z,12.30
2024-03-05T19:31:35.917Z,13.50
2024-03-05T19:34:04.214Z,11.00
2024-03-05T19:36:32.566Z,13.70
2024-03-05T19:39:00.621Z,11.70
2024-03-05T19:41:28.756Z,13.30
2024-03-05T19:43:59.953Z,11.60
2024-03-05T19:46:27.701Z,13.70
2024-03-05T19:48:56.691Z,13.60
2024-03-05T19:57:38.500Z,11.80
2024-03-05T20:00:13.439Z,10.90
2024-03-05T20:02:41.413Z,10.90
2024-03-05T20:05:09.112Z,12.90
2024-03-05T20:07:36.907Z,13.20
2024-03-05T20:10:05.689Z,14.80
2024-03-05T20:12:33.015Z,14.50
2024-03-05T20:15:00.078Z,12.00
2024-03-05T20:17:28.643Z,12.70
2024-03-05T20:19:55.984Z,13.10
2024-03-05T20:22:26.289Z,14.10
2024-03-05T20:25:00.282Z,16.10
2024-03-05T20:27:34.092Z,13.00
2024-03-05T20:30:02.748Z,16.30
2024-03-05T20:32:30.743Z,13.50
2024-03-05T20:34:58.910Z,13.70
2024-03-05T20:37:27.166Z,12.30
2024-03-05T20:39:57.343Z,14.80
2024-03-05T20:42:24.881Z,11.40
2024-03-05T20:44:52.293Z,13.90
2024-03-05T20:47:20.470Z,13.60
2024-03-05T20:49:48.003Z,15.20
2024-03-05T20:52:19.353Z,12.80
2024-03-05T20:54:47.453Z,17.00
2024-03-05T20:57:14.841Z,14.80
2024-03-05T20:59:43.485Z,14.40
2024-03-05T21:02:11.817Z,17.30
2024-03-05T21:04:39.642Z,14.90
2024-03-05T21:07:07.433Z,12.60
2024-03-05T21:09:34.940Z,16.00
2024-03-05T21:12:05.060Z,14.00
2024-03-05T21:14:33.154Z,16.40
2024-03-05T21:17:00.539Z,17.90
2024-03-05T21:19:30.051Z,14.90
2024-03-05T21:21:57.879Z,14.40
2024-03-05T21:24:27.605Z,15.10
2024-03-05T21:27:10.038Z,13.70
2024-03-05T21:29:42.283Z,16.40
2024-03-05T21:32:10.134Z,16.90
2024-03-05T21:34:37.558Z,16.80
2024-03-05T21:37:05.353Z,15.80
2024-03-05T21:46:00.137Z,17.90
2024-03-05T21:48:28.047Z,17.50
2024-03-05T21:51:03.505Z,19.10
2024-03-05T21:53:40.058Z,17.20
2024-03-05T21:56:07.776Z,16.40
2024-03-05T21:58:37.562Z,16.40
2024-03-05T22:01:06.091Z,17.80
2024-03-05T22:03:36.196Z,19.40
2024-03-05T22:06:11.914Z,15.70
2024-03-05T22:08:42.502Z,19.20
2024-03-05T22:35:21.682Z,23.80
2024-03-05T22:37:54.036Z,22.10
2024-03-05T22:40:23.390Z,20.30
2024-03-05T22:42:50.810Z,20.50
2024-03-05T22:45:21.249Z,21.30
2024-03-05T22:47:52.403Z,20.70
2024-03-05T22:50:19.960Z,19.30
2024-03-05T22:52:47.253Z,20.00
2024-03-05T22:55:14.399Z,20.60
2024-03-05T22:57:52.034Z,25.10
2024-03-05T23:00:51.823Z,20.50
2024-03-05T23:03:19.497Z,19.90
2024-03-05T23:05:47.896Z,17.20
2024-03-05T23:08:15.787Z,18.50
2024-03-05T23:10:43.132Z,20.50
2024-03-05T23:13:10.561Z,21.10
2024-03-05T23:15:38.516Z,21.40
2024-03-05T23:18:07.034Z,21.30
2024-03-05T23:20:34.220Z,19.80
2024-03-05T23:23:01.453Z,20.50
2024-03-05T23:25:29.010Z,19.90
2024-03-05T23:27:58.764Z,18.30
2024-03-05T23:30:27.305Z,21.40
2024-03-05T23:32:56.018Z,19.90
2024-03-05T23:35:23.961Z,20.90
2024-03-05T23:38:12.994Z,20.60
2024-03-05T23:40:40.620Z,21.20
2024-03-05T23:43:07.802Z,21.20
2024-03-05T23:45:35.256Z,23.20
2024-03-05T23:48:02.631Z,21.00
2024-03-05T23:50:30.551Z,21.50
2024-03-05T23:52:57.618Z,21.30
2024-03-05T23:55:24.954Z,23.60
2024-03-05T23:57:52.114Z,23.90
